sensor_id;sensor_type;location;lat;lon;timestamp;P1;durP1;ratioP1;P2;durP2;ratioP2
18280;SDS011;9266;51.132;17.062;2023-08-06T00:00:58;8.50;;;7.70;;
18280;SDS011;9266;51.132;17.062;2023-08-06T00:03:25;7.63;;;6.83;;
18280;SDS011;9266;51.132;17.062;2023-08-06T00:05:52;7.23;;;6.53;;
18280;SDS011;9266;51.132;17.062;2023-08-06T00:08:19;6.20;;;5.60;;
18280;SDS011;9266;51.132;17.062;2023-08-06T00:10:47;6.33;;;5.73;;
18280;SDS011;9266;51.132;17.062;2023-08-06T00:13:14;7.03;;;6.33;;
18280;SDS011;9266;51.132;17.062;2023-08-06T00:15:43;6.40;;;5.80;;
18280;SDS011;9266;51.132;17.062;2023-08-06T00:18:10;6.00;;;5.50;;
18280;SDS011;9266;51.132;17.062;2023-08-06T00:20:38;6.87;;;6.17;;
18280;SDS011;9266;51.132;17.062;2023-08-06T00:23:06;6.13;;;5.60;;
18280;SDS011;9266;51.132;17.062;2023-08-06T00:25:33;6.57;;;5.97;;
18280;SDS011;9266;51.132;17.062;2023-08-06T00:28:00;6.87;;;5.73;;
18280;SDS011;9266;51.132;17.062;2023-08-06T00:30:27;6.10;;;5.50;;
18280;SDS011;9266;51.132;17.062;2023-08-06T00:32:55;6.47;;;5.90;;
18280;SDS011;9266;51.132;17.062;2023-08-06T00:35:22;8.17;;;6.20;;
18280;SDS011;9266;51.132;17.062;2023-08-06T00:37:49;6.60;;;5.47;;
18280;SDS011;9266;51.132;17.062;2023-08-06T00:40:16;6.73;;;5.83;;
18280;SDS011;9266;51.132;17.062;2023-08-06T00:42:47;6.20;;;5.60;;
18280;SDS011;9266;51.132;17.062;2023-08-06T00:45:14;6.47;;;5.60;;
18280;SDS011;9266;51.132;17.062;2023-08-06T00:47:41;7.20;;;5.87;;
18280;SDS011;9266;51.132;17.062;2023-08-06T00:50:10;7.77;;;5.60;;
18280;SDS011;9266;51.132;17.062;2023-08-06T00:52:37;5.87;;;5.37;;
18280;SDS011;9266;51.132;17.062;2023-08-06T00:55:04;7.37;;;5.63;;
18280;SDS011;9266;51.132;17.062;2023-08-06T00:57:32;6.40;;;5.80;;
18280;SDS011;9266;51.132;17.062;2023-08-06T00:59:59;7.67;;;6.07;;
18280;SDS011;9266;51.132;17.062;2023-08-06T01:02:26;6.80;;;6.10;;
18280;SDS011;9266;51.132;17.062;2023-08-06T01:04:53;6.27;;;5.67;;
18280;SDS011;9266;51.132;17.062;2023-08-06T01:07:25;6.27;;;5.67;;
18280;SDS011;9266;51.132;17.062;2023-08-06T01:10:08;6.53;;;5.70;;
18280;SDS011;9266;51.132;17.062;2023-08-06T01:12:48;6.37;;;5.77;;
18280;SDS011;9266;51.132;17.062;2023-08-06T01:15:21;6.03;;;5.47;;
18280;SDS011;9266;51.132;17.062;2023-08-06T01:17:51;6.03;;;5.43;;
18280;SDS011;9266;51.132;17.062;2023-08-06T01:20:19;6.70;;;4.80;;
18280;SDS011;9266;51.132;17.062;2023-08-06T01:22:47;4.90;;;4.50;;
18280;SDS011;9266;51.132;17.062;2023-08-06T01:25:15;5.47;;;4.97;;
18280;SDS011;9266;51.132;17.062;2023-08-06T01:27:44;5.17;;;4.67;;
18280;SDS011;9266;51.132;17.062;2023-08-06T01:30:15;5.10;;;4.60;;
18280;SDS011;9266;51.132;17.062;2023-08-06T01:32:46;5.90;;;4.77;;
18280;SDS011;9266;51.132;17.062;2023-08-06T01:35:17;4.63;;;4.23;;
18280;SDS011;9266;51.132;17.062;2023-08-06T01:37:45;4.20;;;3.80;;
18280;SDS011;9266;51.132;17.062;2023-08-06T01:40:15;4.20;;;3.80;;
18280;SDS011;9266;51.132;17.062;2023-08-06T01:42:41;4.43;;;4.03;;
18280;SDS011;9266;51.132;17.062;2023-08-06T01:45:09;4.63;;;4.10;;
18280;SDS011;9266;51.132;17.062;2023-08-06T01:47:36;4.50;;;4.10;;
18280;SDS011;9266;51.132;17.062;2023-08-06T01:50:03;4.20;;;3.80;;
18280;SDS011;9266;51.132;17.062;2023-08-06T01:52:31;4.27;;;3.83;;
18280;SDS011;9266;51.132;17.062;2023-08-06T01:54:59;4.10;;;3.70;;
18280;SDS011;9266;51.132;17.062;2023-08-06T01:57:26;4.13;;;3.50;;
18280;SDS011;9266;51.132;17.062;2023-08-06T01:59:53;4.13;;;3.60;;
18280;SDS011;9266;51.132;17.062;2023-08-06T02:02:20;4.10;;;3.60;;
18280;SDS011;9266;51.132;17.062;2023-08-06T02:04:47;4.33;;;3.50;;
18280;SDS011;9266;51.132;17.062;2023-08-06T02:07:13;4.10;;;3.80;;
18280;SDS011;9266;51.132;17.062;2023-08-06T02:09:40;4.53;;;4.03;;
18280;SDS011;9266;51.132;17.062;2023-08-06T02:12:09;5.10;;;3.73;;
18280;SDS011;9266;51.132;17.062;2023-08-06T02:14:36;4.03;;;3.37;;
18280;SDS011;9266;51.132;17.062;2023-08-06T02:17:03;3.80;;;3.50;;
18280;SDS011;9266;51.132;17.062;2023-08-06T02:19:30;4.27;;;3.10;;
18280;SDS011;9266;51.132;17.062;2023-08-06T02:21:57;3.60;;;3.30;;
18280;SDS011;9266;51.132;17.062;2023-08-06T02:24:24;3.80;;;3.27;;
18280;SDS011;9266;51.132;17.062;2023-08-06T02:26:51;3.77;;;3.10;;
18280;SDS011;9266;51.132;17.062;2023-08-06T02:29:22;4.03;;;3.10;;
18280;SDS011;9266;51.132;17.062;2023-08-06T02:31:49;3.77;;;3.40;;
18280;SDS011;9266;51.132;17.062;2023-08-06T02:34:16;5.17;;;3.30;;
18280;SDS011;9266;51.132;17.062;2023-08-06T02:36:42;3.07;;;2.83;;
18280;SDS011;9266;51.132;17.062;2023-08-06T02:39:09;4.50;;;3.30;;
18280;SDS011;9266;51.132;17.062;2023-08-06T02:41:36;3.17;;;2.87;;
18280;SDS011;9266;51.132;17.062;2023-08-06T02:44:03;3.40;;;2.83;;
18280;SDS011;9266;51.132;17.062;2023-08-06T02:46:32;4.23;;;2.80;;
18280;SDS011;9266;51.132;17.062;2023-08-06T02:48:59;3.40;;;3.10;;
18280;SDS011;9266;51.132;17.062;2023-08-06T02:51:26;2.83;;;2.57;;
18280;SDS011;9266;51.132;17.062;2023-08-06T02:53:52;4.83;;;3.20;;
18280;SDS011;9266;51.132;17.062;2023-08-06T02:56:19;3.50;;;2.77;;
18280;SDS011;9266;51.132;17.062;2023-08-06T02:58:46;3.20;;;2.87;;
18280;SDS011;9266;51.132;17.062;2023-08-06T03:01:13;2.80;;;2.33;;
18280;SDS011;9266;51.132;17.062;2023-08-06T03:03:42;2.57;;;2.37;;
18280;SDS011;9266;51.132;17.062;2023-08-06T03:06:09;2.60;;;2.40;;
18280;SDS011;9266;51.132;17.062;2023-08-06T03:08:35;2.60;;;2.10;;
18280;SDS011;9266;51.132;17.062;2023-08-06T03:11:02;2.40;;;2.20;;
18280;SDS011;9266;51.132;17.062;2023-08-06T03:13:29;2.50;;;2.30;;
18280;SDS011;9266;51.132;17.062;2023-08-06T03:15:57;2.20;;;2.00;;
18280;SDS011;9266;51.132;17.062;2023-08-06T03:18:25;2.27;;;2.07;;
18280;SDS011;9266;51.132;17.062;2023-08-06T03:20:54;2.10;;;1.80;;
18280;SDS011;9266;51.132;17.062;2023-08-06T03:23:22;2.60;;;2.10;;
18280;SDS011;9266;51.132;17.062;2023-08-06T03:25:49;2.00;;;1.80;;
18280;SDS011;9266;51.132;17.062;2023-08-06T03:28:16;2.50;;;1.90;;
18280;SDS011;9266;51.132;17.062;2023-08-06T03:30:43;2.10;;;1.90;;
18280;SDS011;9266;51.132;17.062;2023-08-06T03:33:09;2.53;;;1.80;;
18280;SDS011;9266;51.132;17.062;2023-08-06T03:35:36;1.90;;;1.80;;
18280;SDS011;9266;51.132;17.062;2023-08-06T03:38:05;2.00;;;1.90;;
18280;SDS011;9266;51.132;17.062;2023-08-06T03:40:32;2.00;;;1.90;;
18280;SDS011;9266;51.132;17.062;2023-08-06T03:43:01;1.80;;;1.70;;
18280;SDS011;9266;51.132;17.062;2023-08-06T03:45:28;2.00;;;1.90;;
18280;SDS011;9266;51.132;17.062;2023-08-06T03:47:55;2.07;;;1.90;;
18280;SDS011;9266;51.132;17.062;2023-08-06T03:50:22;2.30;;;1.63;;
18280;SDS011;9266;51.132;17.062;2023-08-06T03:52:49;1.80;;;1.70;;
18280;SDS011;9266;51.132;17.062;2023-08-06T03:55:17;1.80;;;1.70;;
18280;SDS011;9266;51.132;17.062;2023-08-06T03:57:44;2.10;;;1.90;;
18280;SDS011;9266;51.132;17.062;2023-08-06T04:00:11;2.83;;;1.90;;
18280;SDS011;9266;51.132;17.062;2023-08-06T04:02:39;1.73;;;1.60;;
18280;SDS011;9266;51.132;17.062;2023-08-06T04:05:06;2.07;;;1.63;;
18280;SDS011;9266;51.132;17.062;2023-08-06T04:07:33;3.83;;;1.90;;
18280;SDS011;9266;51.132;17.062;2023-08-06T04:10:01;1.80;;;1.60;;
18280;SDS011;9266;51.132;17.062;2023-08-06T04:12:30;1.83;;;1.70;;
18280;SDS011;9266;51.132;17.062;2023-08-06T04:14:58;1.90;;;1.67;;
18280;SDS011;9266;51.132;17.062;2023-08-06T04:17:25;1.70;;;1.60;;
18280;SDS011;9266;51.132;17.062;2023-08-06T04:19:52;1.60;;;1.50;;
18280;SDS011;9266;51.132;17.062;2023-08-06T04:22:23;1.83;;;1.70;;
18280;SDS011;9266;51.132;17.062;2023-08-06T04:24:50;2.10;;;1.90;;
18280;SDS011;9266;51.132;17.062;2023-08-06T04:27:19;3.20;;;1.90;;
18280;SDS011;9266;51.132;17.062;2023-08-06T04:29:47;2.10;;;1.70;;
18280;SDS011;9266;51.132;17.062;2023-08-06T04:32:14;4.33;;;2.03;;
18280;SDS011;9266;51.132;17.062;2023-08-06T04:34:42;1.90;;;1.70;;
18280;SDS011;9266;51.132;17.062;2023-08-06T04:37:09;2.00;;;1.80;;
18280;SDS011;9266;51.132;17.062;2023-08-06T04:39:36;2.40;;;1.70;;
18280;SDS011;9266;51.132;17.062;2023-08-06T04:42:03;2.23;;;1.60;;
18280;SDS011;9266;51.132;17.062;2023-08-06T04:44:31;9.33;;;2.40;;
18280;SDS011;9266;51.132;17.062;2023-08-06T04:46:59;4.23;;;1.90;;
18280;SDS011;9266;51.132;17.062;2023-08-06T04:49:26;3.40;;;2.17;;
18280;SDS011;9266;51.132;17.062;2023-08-06T04:51:53;4.83;;;2.67;;
18280;SDS011;9266;51.132;17.062;2023-08-06T04:54:20;3.50;;;2.40;;
18280;SDS011;9266;51.132;17.062;2023-08-06T04:56:47;2.80;;;2.00;;
18280;SDS011;9266;51.132;17.062;2023-08-06T04:59:14;2.00;;;1.80;;
18280;SDS011;9266;51.132;17.062;2023-08-06T05:01:41;2.10;;;1.70;;
18280;SDS011;9266;51.132;17.062;2023-08-06T05:04:09;1.80;;;1.70;;
18280;SDS011;9266;51.132;17.062;2023-08-06T05:06:36;1.90;;;1.70;;
18280;SDS011;9266;51.132;17.062;2023-08-06T05:09:04;2.00;;;1.80;;
18280;SDS011;9266;51.132;17.062;2023-08-06T05:11:31;2.30;;;2.10;;
18280;SDS011;9266;51.132;17.062;2023-08-06T05:13:58;1.87;;;1.50;;
18280;SDS011;9266;51.132;17.062;2023-08-06T05:16:25;2.00;;;1.80;;
18280;SDS011;9266;51.132;17.062;2023-08-06T05:18:52;1.90;;;1.80;;
18280;SDS011;9266;51.132;17.062;2023-08-06T05:21:22;3.17;;;1.80;;
18280;SDS011;9266;51.132;17.062;2023-08-06T05:23:49;2.17;;;1.97;;
18280;SDS011;9266;51.132;17.062;2023-08-06T05:26:16;2.10;;;1.90;;
18280;SDS011;9266;51.132;17.062;2023-08-06T05:28:44;2.07;;;1.80;;
18280;SDS011;9266;51.132;17.062;2023-08-06T05:31:11;2.10;;;1.90;;
18280;SDS011;9266;51.132;17.062;2023-08-06T05:33:39;2.20;;;1.87;;
18280;SDS011;9266;51.132;17.062;2023-08-06T05:36:05;2.10;;;1.90;;
18280;SDS011;9266;51.132;17.062;2023-08-06T05:38:34;1.93;;;1.70;;
18280;SDS011;9266;51.132;17.062;2023-08-06T05:41:01;1.80;;;1.70;;
18280;SDS011;9266;51.132;17.062;2023-08-06T05:43:28;2.33;;;1.50;;
18280;SDS011;9266;51.132;17.062;2023-08-06T05:45:55;1.87;;;1.70;;
18280;SDS011;9266;51.132;17.062;2023-08-06T05:48:22;1.50;;;1.40;;
18280;SDS011;9266;51.132;17.062;2023-08-06T05:50:50;1.77;;;1.57;;
18280;SDS011;9266;51.132;17.062;2023-08-06T05:53:17;3.63;;;1.60;;
18280;SDS011;9266;51.132;17.062;2023-08-06T05:55:46;1.80;;;1.70;;
18280;SDS011;9266;51.132;17.062;2023-08-06T05:58:13;2.30;;;1.70;;
18280;SDS011;9266;51.132;17.062;2023-08-06T06:00:40;2.30;;;1.67;;
18280;SDS011;9266;51.132;17.062;2023-08-06T06:03:07;1.57;;;1.47;;
18280;SDS011;9266;51.132;17.062;2023-08-06T06:05:34;2.93;;;1.80;;
18280;SDS011;9266;51.132;17.062;2023-08-06T06:08:03;2.80;;;1.60;;
18280;SDS011;9266;51.132;17.062;2023-08-06T06:10:30;2.87;;;1.60;;
18280;SDS011;9266;51.132;17.062;2023-08-06T06:12:58;2.80;;;1.60;;
18280;SDS011;9266;51.132;17.062;2023-08-06T06:15:25;1.70;;;1.50;;
18280;SDS011;9266;51.132;17.062;2023-08-06T06:17:52;1.50;;;1.40;;
18280;SDS011;9266;51.132;17.062;2023-08-06T06:20:19;1.77;;;1.67;;
18280;SDS011;9266;51.132;17.062;2023-08-06T06:22:46;1.57;;;1.47;;
18280;SDS011;9266;51.132;17.062;2023-08-06T06:25:13;1.80;;;1.60;;
18280;SDS011;9266;51.132;17.062;2023-08-06T06:27:40;1.83;;;1.50;;
18280;SDS011;9266;51.132;17.062;2023-08-06T06:30:09;1.90;;;1.70;;
18280;SDS011;9266;51.132;17.062;2023-08-06T06:32:38;2.17;;;1.80;;
18280;SDS011;9266;51.132;17.062;2023-08-06T06:35:06;1.70;;;1.60;;
18280;SDS011;9266;51.132;17.062;2023-08-06T06:37:33;1.70;;;1.60;;
18280;SDS011;9266;51.132;17.062;2023-08-06T06:40:00;3.60;;;1.53;;
18280;SDS011;9266;51.132;17.062;2023-08-06T06:42:28;1.50;;;1.40;;
18280;SDS011;9266;51.132;17.062;2023-08-06T06:44:55;1.50;;;1.40;;
18280;SDS011;9266;51.132;17.062;2023-08-06T06:47:24;3.03;;;1.50;;
18280;SDS011;9266;51.132;17.062;2023-08-06T06:49:50;1.60;;;1.50;;
18280;SDS011;9266;51.132;17.062;2023-08-06T06:52:17;1.50;;;1.40;;
18280;SDS011;9266;51.132;17.062;2023-08-06T06:54:44;1.93;;;1.40;;
18280;SDS011;9266;51.132;17.062;2023-08-06T06:57:11;1.40;;;1.30;;
18280;SDS011;9266;51.132;17.062;2023-08-06T06:59:38;2.50;;;1.60;;
18280;SDS011;9266;51.132;17.062;2023-08-06T07:02:05;1.60;;;1.50;;
18280;SDS011;9266;51.132;17.062;2023-08-06T07:04:34;1.87;;;1.60;;
18280;SDS011;9266;51.132;17.062;2023-08-06T07:07:00;1.40;;;1.30;;
18280;SDS011;9266;51.132;17.062;2023-08-06T07:09:27;1.80;;;1.50;;
18280;SDS011;9266;51.132;17.062;2023-08-06T07:11:54;1.83;;;1.50;;
18280;SDS011;9266;51.132;17.062;2023-08-06T07:14:21;1.50;;;1.40;;
18280;SDS011;9266;51.132;17.062;2023-08-06T07:16:49;1.90;;;1.70;;
18280;SDS011;9266;51.132;17.062;2023-08-06T07:19:16;2.57;;;1.60;;
18280;SDS011;9266;51.132;17.062;2023-08-06T07:21:44;1.63;;;1.53;;
18280;SDS011;9266;51.132;17.062;2023-08-06T07:24:11;1.77;;;1.60;;
18280;SDS011;9266;51.132;17.062;2023-08-06T07:26:38;1.60;;;1.50;;
18280;SDS011;9266;51.132;17.062;2023-08-06T07:29:05;1.73;;;1.40;;
18280;SDS011;9266;51.132;17.062;2023-08-06T07:31:32;2.00;;;1.63;;
18280;SDS011;9266;51.132;17.062;2023-08-06T07:33:59;1.70;;;1.57;;
18280;SDS011;9266;51.132;17.062;2023-08-06T07:36:26;2.63;;;1.60;;
18280;SDS011;9266;51.132;17.062;2023-08-06T07:38:54;1.90;;;1.70;;
18280;SDS011;9266;51.132;17.062;2023-08-06T07:41:22;1.70;;;1.60;;
18280;SDS011;9266;51.132;17.062;2023-08-06T07:43:49;2.30;;;1.50;;
18280;SDS011;9266;51.132;17.062;2023-08-06T07:46:16;3.90;;;1.87;;
18280;SDS011;9266;51.132;17.062;2023-08-06T07:48:43;1.70;;;1.60;;
18280;SDS011;9266;51.132;17.062;2023-08-06T07:51:10;1.87;;;1.77;;
18280;SDS011;9266;51.132;17.062;2023-08-06T07:53:37;2.03;;;1.80;;
18280;SDS011;9266;51.132;17.062;2023-08-06T07:56:05;2.00;;;1.90;;
18280;SDS011;9266;51.132;17.062;2023-08-06T07:58:32;2.90;;;2.20;;
18280;SDS011;9266;51.132;17.062;2023-08-06T08:00:59;2.50;;;2.30;;
18280;SDS011;9266;51.132;17.062;2023-08-06T08:03:26;2.30;;;2.10;;
18280;SDS011;9266;51.132;17.062;2023-08-06T08:05:54;3.20;;;2.93;;
18280;SDS011;9266;51.132;17.062;2023-08-06T08:08:23;3.50;;;3.20;;
18280;SDS011;9266;51.132;17.062;2023-08-06T08:10:50;4.97;;;3.60;;
18280;SDS011;9266;51.132;17.062;2023-08-06T08:13:19;3.90;;;3.60;;
18280;SDS011;9266;51.132;17.062;2023-08-06T08:15:45;4.00;;;3.40;;
18280;SDS011;9266;51.132;17.062;2023-08-06T08:18:12;3.60;;;3.30;;
18280;SDS011;9266;51.132;17.062;2023-08-06T08:20:39;3.80;;;3.50;;
18280;SDS011;9266;51.132;17.062;2023-08-06T08:23:06;4.10;;;3.70;;
18280;SDS011;9266;51.132;17.062;2023-08-06T08:25:33;4.83;;;4.17;;
18280;SDS011;9266;51.132;17.062;2023-08-06T08:28:00;4.70;;;4.30;;
18280;SDS011;9266;51.132;17.062;2023-08-06T08:30:28;4.43;;;4.10;;
18280;SDS011;9266;51.132;17.062;2023-08-06T08:32:55;4.80;;;4.40;;
18280;SDS011;9266;51.132;17.062;2023-08-06T08:35:22;4.83;;;4.37;;
18280;SDS011;9266;51.132;17.062;2023-08-06T08:37:49;4.97;;;4.53;;
18280;SDS011;9266;51.132;17.062;2023-08-06T08:40:17;4.77;;;4.37;;
18280;SDS011;9266;51.132;17.062;2023-08-06T08:42:44;4.53;;;4.03;;
18280;SDS011;9266;51.132;17.062;2023-08-06T08:45:12;4.30;;;4.00;;
18280;SDS011;9266;51.132;17.062;2023-08-06T08:47:41;3.80;;;3.50;;
18280;SDS011;9266;51.132;17.062;2023-08-06T08:50:09;3.83;;;3.53;;
18280;SDS011;9266;51.132;17.062;2023-08-06T08:52:37;4.23;;;3.53;;
18280;SDS011;9266;51.132;17.062;2023-08-06T08:55:05;3.57;;;3.27;;
18280;SDS011;9266;51.132;17.062;2023-08-06T08:57:34;3.40;;;3.10;;
18280;SDS011;9266;51.132;17.062;2023-08-06T09:00:01;3.20;;;3.00;;
18280;SDS011;9266;51.132;17.062;2023-08-06T09:02:28;3.10;;;2.80;;
18280;SDS011;9266;51.132;17.062;2023-08-06T09:04:58;3.17;;;2.93;;
18280;SDS011;9266;51.132;17.062;2023-08-06T09:07:28;4.00;;;2.67;;
18280;SDS011;9266;51.132;17.062;2023-08-06T09:09:58;2.83;;;2.63;;
18280;SDS011;9266;51.132;17.062;2023-08-06T09:12:30;2.53;;;2.33;;
18280;SDS011;9266;51.132;17.062;2023-08-06T09:14:58;2.77;;;2.50;;
18280;SDS011;9266;51.132;17.062;2023-08-06T09:17:25;2.00;;;1.90;;
18280;SDS011;9266;51.132;17.062;2023-08-06T09:19:53;2.00;;;1.90;;
18280;SDS011;9266;51.132;17.062;2023-08-06T09:22:21;3.60;;;2.20;;
18280;SDS011;9266;51.132;17.062;2023-08-06T09:24:49;2.67;;;1.93;;
18280;SDS011;9266;51.132;17.062;2023-08-06T09:27:16;2.20;;;2.00;;
18280;SDS011;9266;51.132;17.062;2023-08-06T09:29:43;2.80;;;2.13;;
18280;SDS011;9266;51.132;17.062;2023-08-06T09:32:11;2.50;;;1.93;;
18280;SDS011;9266;51.132;17.062;2023-08-06T09:34:38;2.13;;;1.87;;
18280;SDS011;9266;51.132;17.062;2023-08-06T09:37:06;2.13;;;1.93;;
18280;SDS011;9266;51.132;17.062;2023-08-06T09:39:38;2.20;;;2.00;;
18280;SDS011;9266;51.132;17.062;2023-08-06T09:42:06;2.30;;;2.10;;
18280;SDS011;9266;51.132;17.062;2023-08-06T09:44:33;2.13;;;1.97;;
18280;SDS011;9266;51.132;17.062;2023-08-06T09:47:01;2.27;;;2.07;;
18280;SDS011;9266;51.132;17.062;2023-08-06T09:49:39;2.77;;;2.13;;
18280;SDS011;9266;51.132;17.062;2023-08-06T09:52:10;2.63;;;2.30;;
18280;SDS011;9266;51.132;17.062;2023-08-06T09:54:40;2.77;;;2.43;;
18280;SDS011;9266;51.132;17.062;2023-08-06T09:57:09;2.97;;;2.30;;
18280;SDS011;9266;51.132;17.062;2023-08-06T09:59:37;3.00;;;2.17;;
18280;SDS011;9266;51.132;17.062;2023-08-06T10:02:07;2.30;;;2.10;;
18280;SDS011;9266;51.132;17.062;2023-08-06T10:04:38;5.60;;;2.30;;
18280;SDS011;9266;51.132;17.062;2023-08-06T10:07:08;2.70;;;2.50;;
18280;SDS011;9266;51.132;17.062;2023-08-06T10:09:35;3.07;;;2.70;;
18280;SDS011;9266;51.132;17.062;2023-08-06T10:12:04;2.20;;;2.00;;
18280;SDS011;9266;51.132;17.062;2023-08-06T10:14:32;2.73;;;2.20;;
18280;SDS011;9266;51.132;17.062;2023-08-06T10:17:01;2.30;;;2.10;;
18280;SDS011;9266;51.132;17.062;2023-08-06T10:19:29;3.00;;;2.80;;
18280;SDS011;9266;51.132;17.062;2023-08-06T10:22:10;2.90;;;2.70;;
18280;SDS011;9266;51.132;17.062;2023-08-06T10:24:47;2.37;;;2.17;;
18280;SDS011;9266;51.132;17.062;2023-08-06T10:27:20;3.10;;;2.80;;
18280;SDS011;9266;51.132;17.062;2023-08-06T10:29:48;3.43;;;2.50;;
18280;SDS011;9266;51.132;17.062;2023-08-06T10:32:15;3.57;;;2.50;;
18280;SDS011;9266;51.132;17.062;2023-08-06T10:34:53;3.60;;;3.30;;
18280;SDS011;9266;51.132;17.062;2023-08-06T10:37:22;2.73;;;2.53;;
18280;SDS011;9266;51.132;17.062;2023-08-06T10:39:50;3.00;;;2.37;;
18280;SDS011;9266;51.132;17.062;2023-08-06T10:42:22;3.10;;;2.40;;
18280;SDS011;9266;51.132;17.062;2023-08-06T10:45:12;2.87;;;2.67;;
18280;SDS011;9266;51.132;17.062;2023-08-06T10:47:41;2.40;;;2.20;;
18280;SDS011;9266;51.132;17.062;2023-08-06T10:50:10;2.87;;;2.50;;
18280;SDS011;9266;51.132;17.062;2023-08-06T10:52:38;2.60;;;2.40;;
18280;SDS011;9266;51.132;17.062;2023-08-06T10:55:05;3.57;;;2.77;;
18280;SDS011;9266;51.132;17.062;2023-08-06T10:57:35;2.43;;;2.23;;
18280;SDS011;9266;51.132;17.062;2023-08-06T11:00:03;2.37;;;2.17;;
18280;SDS011;9266;51.132;17.062;2023-08-06T11:02:33;2.50;;;2.20;;
18280;SDS011;9266;51.132;17.062;2023-08-06T11:05:04;2.23;;;2.00;;
18280;SDS011;9266;51.132;17.062;2023-08-06T11:07:32;2.40;;;2.20;;
18280;SDS011;9266;51.132;17.062;2023-08-06T11:10:03;3.07;;;2.20;;
18280;SDS011;9266;51.132;17.062;2023-08-06T11:12:30;2.30;;;2.03;;
18280;SDS011;9266;51.132;17.062;2023-08-06T11:14:59;2.20;;;2.00;;
18280;SDS011;9266;51.132;17.062;2023-08-06T11:17:27;2.17;;;1.93;;
18280;SDS011;9266;51.132;17.062;2023-08-06T11:19:54;2.40;;;2.20;;
18280;SDS011;9266;51.132;17.062;2023-08-06T11:22:21;2.83;;;2.00;;
18280;SDS011;9266;51.132;17.062;2023-08-06T11:24:48;2.37;;;2.17;;
18280;SDS011;9266;51.132;17.062;2023-08-06T11:27:17;2.33;;;1.93;;
18280;SDS011;9266;51.132;17.062;2023-08-06T11:29:44;3.30;;;3.03;;
18280;SDS011;9266;51.132;17.062;2023-08-06T11:32:12;2.40;;;1.90;;
18280;SDS011;9266;51.132;17.062;2023-08-06T11:34:39;2.33;;;2.13;;
18280;SDS011;9266;51.132;17.062;2023-08-06T11:37:07;2.83;;;2.10;;
18280;SDS011;9266;51.132;17.062;2023-08-06T11:39:35;2.40;;;1.97;;
18280;SDS011;9266;51.132;17.062;2023-08-06T11:42:03;2.07;;;1.90;;
18280;SDS011;9266;51.132;17.062;2023-08-06T11:44:31;2.70;;;2.50;;
18280;SDS011;9266;51.132;17.062;2023-08-06T11:47:01;2.20;;;2.00;;
18280;SDS011;9266;51.132;17.062;2023-08-06T11:49:41;2.00;;;1.80;;
18280;SDS011;9266;51.132;17.062;2023-08-06T11:52:11;2.10;;;1.90;;
18280;SDS011;9266;51.132;17.062;2023-08-06T11:54:40;3.13;;;2.10;;
18280;SDS011;9266;51.132;17.062;2023-08-06T11:57:07;1.93;;;1.77;;
18280;SDS011;9266;51.132;17.062;2023-08-06T11:59:34;1.90;;;1.80;;
18280;SDS011;9266;51.132;17.062;2023-08-06T12:02:03;2.00;;;1.90;;
18280;SDS011;9266;51.132;17.062;2023-08-06T12:04:31;1.70;;;1.60;;
18280;SDS011;9266;51.132;17.062;2023-08-06T12:07:05;1.93;;;1.83;;
18280;SDS011;9266;51.132;17.062;2023-08-06T12:09:33;1.80;;;1.70;;
18280;SDS011;9266;51.132;17.062;2023-08-06T12:12:01;2.00;;;1.90;;
18280;SDS011;9266;51.132;17.062;2023-08-06T12:14:29;2.30;;;2.10;;
18280;SDS011;9266;51.132;17.062;2023-08-06T12:16:56;2.17;;;1.97;;
18280;SDS011;9266;51.132;17.062;2023-08-06T12:19:23;2.17;;;1.97;;
18280;SDS011;9266;51.132;17.062;2023-08-06T12:21:51;2.27;;;1.90;;
18280;SDS011;9266;51.132;17.062;2023-08-06T12:24:19;2.00;;;1.90;;
18280;SDS011;9266;51.132;17.062;2023-08-06T12:26:46;2.17;;;1.97;;
18280;SDS011;9266;51.132;17.062;2023-08-06T12:29:13;2.27;;;2.07;;
18280;SDS011;9266;51.132;17.062;2023-08-06T12:31:40;2.40;;;2.20;;
18280;SDS011;9266;51.132;17.062;2023-08-06T12:34:07;2.50;;;2.30;;
18280;SDS011;9266;51.132;17.062;2023-08-06T12:36:34;2.30;;;2.10;;
18280;SDS011;9266;51.132;17.062;2023-08-06T12:39:03;2.60;;;2.40;;
18280;SDS011;9266;51.132;17.062;2023-08-06T12:41:32;3.03;;;2.33;;
18280;SDS011;9266;51.132;17.062;2023-08-06T12:43:59;2.83;;;2.50;;
18280;SDS011;9266;51.132;17.062;2023-08-06T12:46:25;3.77;;;3.00;;
18280;SDS011;9266;51.132;17.062;2023-08-06T12:48:52;4.80;;;4.30;;
18280;SDS011;9266;51.132;17.062;2023-08-06T12:51:19;2.37;;;2.10;;
18280;SDS011;9266;51.132;17.062;2023-08-06T12:53:46;3.53;;;2.57;;
18280;SDS011;9266;51.132;17.062;2023-08-06T12:56:13;3.80;;;2.40;;
18280;SDS011;9266;51.132;17.062;2023-08-06T12:58:41;2.50;;;2.10;;
18280;SDS011;9266;51.132;17.062;2023-08-06T13:01:09;2.40;;;2.20;;
18280;SDS011;9266;51.132;17.062;2023-08-06T13:03:36;2.50;;;2.30;;
18280;SDS011;9266;51.132;17.062;2023-08-06T13:06:03;2.80;;;2.50;;
18280;SDS011;9266;51.132;17.062;2023-08-06T13:08:30;3.47;;;2.70;;
18280;SDS011;9266;51.132;17.062;2023-08-06T13:10:57;2.60;;;2.40;;
18280;SDS011;9266;51.132;17.062;2023-08-06T13:13:24;3.57;;;2.47;;
18280;SDS011;9266;51.132;17.062;2023-08-06T13:15:53;2.93;;;2.57;;
18280;SDS011;9266;51.132;17.062;2023-08-06T13:18:20;2.53;;;2.33;;
18280;SDS011;9266;51.132;17.062;2023-08-06T13:20:47;7.80;;;5.93;;
18280;SDS011;9266;51.132;17.062;2023-08-06T13:23:17;3.00;;;2.77;;
18280;SDS011;9266;51.132;17.062;2023-08-06T13:25:44;4.20;;;3.00;;
18280;SDS011;9266;51.132;17.062;2023-08-06T13:28:11;4.03;;;2.97;;
18280;SDS011;9266;51.132;17.062;2023-08-06T13:30:39;4.10;;;3.10;;
18280;SDS011;9266;51.132;17.062;2023-08-06T13:33:08;3.30;;;3.00;;
18280;SDS011;9266;51.132;17.062;2023-08-06T13:35:35;2.83;;;2.43;;
18280;SDS011;9266;51.132;17.062;2023-08-06T13:38:02;3.10;;;2.80;;
18280;SDS011;9266;51.132;17.062;2023-08-06T13:40:29;2.87;;;2.50;;
18280;SDS011;9266;51.132;17.062;2023-08-06T13:42:58;3.90;;;2.77;;
18280;SDS011;9266;51.132;17.062;2023-08-06T13:45:25;4.77;;;3.70;;
18280;SDS011;9266;51.132;17.062;2023-08-06T13:47:52;3.83;;;3.40;;
18280;SDS011;9266;51.132;17.062;2023-08-06T13:50:21;3.93;;;3.00;;
18280;SDS011;9266;51.132;17.062;2023-08-06T13:52:50;3.10;;;2.80;;
18280;SDS011;9266;51.132;17.062;2023-08-06T13:55:20;3.53;;;2.90;;
18280;SDS011;9266;51.132;17.062;2023-08-06T13:57:47;2.50;;;2.20;;
18280;SDS011;9266;51.132;17.062;2023-08-06T14:00:14;3.20;;;2.40;;
18280;SDS011;9266;51.132;17.062;2023-08-06T14:02:41;3.57;;;2.60;;
18280;SDS011;9266;51.132;17.062;2023-08-06T14:05:10;2.70;;;2.50;;
18280;SDS011;9266;51.132;17.062;2023-08-06T14:07:38;3.70;;;2.43;;
18280;SDS011;9266;51.132;17.062;2023-08-06T14:10:05;2.30;;;2.10;;
18280;SDS011;9266;51.132;17.062;2023-08-06T14:12:34;2.40;;;2.20;;
18280;SDS011;9266;51.132;17.062;2023-08-06T14:15:01;3.07;;;2.30;;
18280;SDS011;9266;51.132;17.062;2023-08-06T14:17:29;3.30;;;2.20;;
18280;SDS011;9266;51.132;17.062;2023-08-06T14:19:56;2.60;;;2.40;;
18280;SDS011;9266;51.132;17.062;2023-08-06T14:22:23;2.60;;;2.40;;
18280;SDS011;9266;51.132;17.062;2023-08-06T14:24:51;2.33;;;2.10;;
18280;SDS011;9266;51.132;17.062;2023-08-06T14:27:18;2.93;;;2.40;;
18280;SDS011;9266;51.132;17.062;2023-08-06T14:29:45;3.07;;;2.77;;
18280;SDS011;9266;51.132;17.062;2023-08-06T14:32:12;2.70;;;2.50;;
18280;SDS011;9266;51.132;17.062;2023-08-06T14:34:42;2.83;;;2.63;;
18280;SDS011;9266;51.132;17.062;2023-08-06T14:37:10;3.23;;;2.70;;
18280;SDS011;9266;51.132;17.062;2023-08-06T14:39:37;3.23;;;2.97;;
18280;SDS011;9266;51.132;17.062;2023-08-06T14:42:05;2.77;;;2.57;;
18280;SDS011;9266;51.132;17.062;2023-08-06T14:44:32;2.80;;;2.60;;
18280;SDS011;9266;51.132;17.062;2023-08-06T14:46:59;3.80;;;2.93;;
18280;SDS011;9266;51.132;17.062;2023-08-06T14:49:26;2.93;;;2.63;;
18280;SDS011;9266;51.132;17.062;2023-08-06T14:51:53;5.27;;;3.20;;